createdAt,value
2022-09-15T00:01:21.255Z,2.05
2022-09-15T00:03:49.741Z,1.85
2022-09-15T00:06:18.095Z,2.00
2022-09-15T00:08:48.047Z,2.70
2022-09-15T00:11:19.409Z,2.35
2022-09-15T00:13:47.676Z,1.88
2022-09-15T00:16:16.607Z,2.03
2022-09-15T00:18:46.032Z,2.35
2022-09-15T00:21:16.659Z,2.28
2022-09-15T00:23:45.319Z,2.50
2022-09-15T00:26:17.862Z,2.25
2022-09-15T00:28:46.613Z,2.50
2022-09-15T00:31:16.534Z,2.08
2022-09-15T00:33:47.772Z,2.42
2022-09-15T00:36:16.237Z,2.85
2022-09-15T00:38:44.922Z,2.70
2022-09-15T00:41:16.814Z,3.03
2022-09-15T00:43:48.185Z,2.47
2022-09-15T00:46:18.168Z,3.10
2022-09-15T00:48:53.881Z,2.72
2022-09-15T00:51:28.051Z,2.72
2022-09-15T00:53:59.029Z,2.63
2022-09-15T00:56:29.539Z,2.63
2022-09-15T00:59:02.592Z,2.72
2022-09-15T01:01:32.934Z,2.95
2022-09-15T01:04:01.417Z,2.45
2022-09-15T01:06:34.997Z,2.67
2022-09-15T01:09:08.757Z,2.60
2022-09-15T01:11:38.776Z,2.50
2022-09-15T01:14:06.824Z,2.47
2022-09-15T01:16:46.243Z,2.47
2022-09-15T01:19:59.312Z,2.38
2022-09-15T01:22:37.565Z,2.60
2022-09-15T01:25:11.079Z,2.40
2022-09-15T01:28:07.816Z,2.47
2022-09-15T01:30:40.584Z,2.65
2022-09-15T01:33:17.774Z,3.63
2022-09-15T01:35:57.175Z,2.55
2022-09-15T01:38:34.126Z,3.28
2022-09-15T01:41:09.478Z,2.78
2022-09-15T01:43:42.289Z,3.00
2022-09-15T01:46:13.353Z,2.78
2022-09-15T01:48:43.255Z,2.60
2022-09-15T01:51:11.863Z,2.72
2022-09-15T01:53:40.264Z,2.83
2022-09-15T01:56:10.422Z,2.60
2022-09-15T01:58:40.736Z,2.75
2022-09-15T02:01:14.951Z,2.83
2022-09-15T02:03:48.805Z,2.63
2022-09-15T02:06:22.829Z,2.60
2022-09-15T02:08:55.027Z,2.85
2022-09-15T02:11:27.454Z,2.60
2022-09-15T02:14:00.892Z,2.85
2022-09-15T02:16:34.409Z,2.83
2022-09-15T02:19:13.150Z,2.47
2022-09-15T02:21:53.814Z,3.00
2022-09-15T02:24:27.885Z,2.65
2022-09-15T02:26:56.277Z,2.60
2022-09-15T02:29:28.206Z,2.60
2022-09-15T02:32:06.770Z,2.88
2022-09-15T02:34:38.241Z,2.85
2022-09-15T02:37:07.441Z,2.60
2022-09-15T02:39:39.833Z,2.95
2022-09-15T02:42:08.377Z,3.25
2022-09-15T02:44:36.416Z,3.22
2022-09-15T02:47:05.962Z,3.20
2022-09-15T02:49:34.009Z,3.20
2022-09-15T02:52:01.962Z,3.08
2022-09-15T02:54:31.726Z,3.22
2022-09-15T02:57:00.985Z,3.55
2022-09-15T02:59:49.447Z,3.05
2022-09-15T03:02:20.431Z,3.30
2022-09-15T03:04:49.100Z,3.65
2022-09-15T03:07:17.246Z,2.80
2022-09-15T03:09:46.015Z,3.10
2022-09-15T03:12:14.196Z,3.22
2022-09-15T03:14:42.146Z,2.80
2022-09-15T03:17:10.086Z,3.20
2022-09-15T03:19:39.580Z,2.83
2022-09-15T03:22:09.358Z,3.40
2022-09-15T03:24:37.826Z,3.20
2022-09-15T03:27:06.487Z,2.78
2022-09-15T03:29:34.459Z,3.33
2022-09-15T03:32:03.002Z,3.20
2022-09-15T03:34:30.928Z,3.42
2022-09-15T03:37:00.383Z,2.78
2022-09-15T03:39:28.465Z,3.10
2022-09-15T03:41:56.718Z,3.05
2022-09-15T03:44:24.810Z,2.83
2022-09-15T03:46:52.956Z,3.22
2022-09-15T03:49:21.002Z,3.47
2022-09-15T03:51:49.083Z,3.00
2022-09-15T03:54:19.569Z,2.67
2022-09-15T03:56:49.146Z,2.80
2022-09-15T03:59:18.982Z,2.88
2022-09-15T04:01:47.144Z,3.00
2022-09-15T04:04:15.798Z,2.75
2022-09-15T04:06:44.715Z,2.83
2022-09-15T04:09:12.723Z,2.92
2022-09-15T04:11:42.678Z,2.90
2022-09-15T04:14:10.744Z,2.50
2022-09-15T04:16:39.142Z,3.10
2022-09-15T04:19:07.439Z,2.70
2022-09-15T04:21:35.469Z,2.83
2022-09-15T04:24:05.865Z,2.70
2022-09-15T04:26:36.909Z,2.63
2022-09-15T04:29:11.919Z,3.28
2022-09-15T04:31:40.008Z,3.17
2022-09-15T04:34:07.977Z,2.92
2022-09-15T04:36:35.949Z,2.80
2022-09-15T04:39:05.344Z,2.65
2022-09-15T04:41:34.707Z,3.13
2022-09-15T04:44:03.441Z,2.75
2022-09-15T04:46:32.810Z,2.45
2022-09-15T04:49:00.761Z,2.50
2022-09-15T04:51:28.899Z,3.22
2022-09-15T04:53:57.002Z,2.25
2022-09-15T04:56:27.165Z,2.70
2022-09-15T04:59:02.404Z,2.30
2022-09-15T05:01:35.018Z,2.60
2022-09-15T05:04:04.560Z,2.47
2022-09-15T05:06:33.058Z,2.25
2022-09-15T05:09:01.042Z,2.42
2022-09-15T05:11:30.940Z,2.75
2022-09-15T05:13:58.926Z,2.35
2022-09-15T05:16:29.995Z,2.33
2022-09-15T05:19:01.777Z,2.30
2022-09-15T05:21:30.173Z,3.17
2022-09-15T05:23:58.421Z,2.20
2022-09-15T05:26:28.616Z,2.78
2022-09-15T05:28:59.778Z,2.00
2022-09-15T05:31:30.530Z,2.30
2022-09-15T05:34:01.932Z,2.42
2022-09-15T05:36:30.678Z,2.33
2022-09-15T05:38:59.078Z,2.28
2022-09-15T05:41:29.535Z,2.20
2022-09-15T05:43:58.936Z,2.38
2022-09-15T05:46:29.131Z,2.55
2022-09-15T05:48:59.941Z,2.03
2022-09-15T05:51:30.069Z,2.85
2022-09-15T05:53:58.192Z,2.03
2022-09-15T05:56:26.079Z,2.95
2022-09-15T05:58:54.309Z,2.40
2022-09-15T06:01:24.397Z,2.40
2022-09-15T06:03:52.838Z,2.60
2022-09-15T06:06:22.967Z,3.05
2022-09-15T06:08:58.119Z,2.58
2022-09-15T06:11:28.457Z,2.08
2022-09-15T06:13:56.733Z,2.50
2022-09-15T06:16:26.650Z,2.50
2022-09-15T06:18:55.206Z,2.65
2022-09-15T06:21:26.733Z,2.58
2022-09-15T06:23:55.418Z,2.30
2022-09-15T06:26:24.621Z,2.85
2022-09-15T06:28:54.460Z,2.30
2022-09-15T06:31:23.590Z,2.40
2022-09-15T06:33:54.021Z,2.40
2022-09-15T06:36:25.930Z,2.50
2022-09-15T06:38:54.645Z,2.40
2022-09-15T06:41:22.974Z,2.30
2022-09-15T06:43:50.996Z,2.33
2022-09-15T06:46:21.547Z,2.40
2022-09-15T06:48:51.137Z,2.20
2022-09-15T06:51:21.251Z,2.28
2022-09-15T06:53:51.388Z,2.10
2022-09-15T06:56:21.596Z,1.98
2022-09-15T06:58:50.196Z,2.20
2022-09-15T07:01:22.996Z,2.45
2022-09-15T07:03:51.266Z,2.35
2022-09-15T07:06:19.808Z,2.60
2022-09-15T07:08:48.448Z,2.25
2022-09-15T07:11:18.661Z,1.90
2022-09-15T07:13:47.010Z,2.22
2022-09-15T07:16:15.281Z,2.10
2022-09-15T07:18:43.849Z,2.28
2022-09-15T07:21:14.996Z,2.30
2022-09-15T07:23:43.728Z,2.22
2022-09-15T07:26:13.364Z,2.63
2022-09-15T07:28:44.333Z,2.28
2022-09-15T07:31:15.378Z,2.10
2022-09-15T07:33:43.527Z,1.95
2022-09-15T07:36:11.600Z,1.98
2022-09-15T07:38:42.194Z,1.85
2022-09-15T07:41:11.889Z,2.22
2022-09-15T07:43:40.398Z,2.00
2022-09-15T07:46:09.821Z,2.10
2022-09-15T07:48:38.003Z,2.50
2022-09-15T07:51:06.476Z,2.20
2022-09-15T07:53:34.406Z,2.47
2022-09-15T07:56:02.761Z,2.00
2022-09-15T07:58:30.904Z,2.40
2022-09-15T08:01:03.027Z,1.90
2022-09-15T08:03:32.714Z,2.10
2022-09-15T08:06:01.036Z,2.88
2022-09-15T08:08:29.499Z,2.20
2022-09-15T08:10:57.684Z,2.00
2022-09-15T08:13:25.940Z,2.10
2022-09-15T08:15:54.020Z,2.20
2022-09-15T08:18:22.127Z,1.95
2022-09-15T08:20:51.408Z,1.90
2022-09-15T08:23:19.357Z,1.80
2022-09-15T08:25:47.611Z,1.98
2022-09-15T08:28:15.619Z,2.25
2022-09-15T08:30:43.675Z,2.10
2022-09-15T08:33:11.675Z,1.98
2022-09-15T08:35:39.599Z,2.00
2022-09-15T08:38:08.970Z,1.50
2022-09-15T08:40:38.852Z,2.00
2022-09-15T08:43:15.799Z,1.75
2022-09-15T08:45:50.324Z,2.15
2022-09-15T08:48:20.865Z,1.73
2022-09-15T08:50:52.240Z,2.10
2022-09-15T08:53:26.309Z,1.77
2022-09-15T08:55:56.150Z,2.38
2022-09-15T08:58:26.997Z,1.90
2022-09-15T09:01:03.344Z,1.90
2022-09-15T09:03:52.903Z,2.00
2022-09-15T09:06:30.068Z,1.70
2022-09-15T09:09:18.535Z,2.10
2022-09-15T09:12:21.780Z,1.98
2022-09-15T09:15:04.289Z,1.90
2022-09-15T09:18:06.853Z,1.60
2022-09-15T09:20:49.927Z,2.00
2022-09-15T09:23:23.764Z,2.17
2022-09-15T09:25:53.532Z,1.88
2022-09-15T09:28:30.282Z,1.80
2022-09-15T09:31:02.333Z,1.88
2022-09-15T09:33:42.796Z,1.70
2022-09-15T09:36:14.237Z,2.15
2022-09-15T09:38:44.810Z,2.05
2022-09-15T09:41:17.540Z,2.13
2022-09-15T09:43:48.380Z,1.70
2022-09-15T09:46:18.278Z,1.90
2022-09-15T09:48:50.301Z,2.13
2022-09-15T09:51:35.608Z,2.35
2022-09-15T09:54:12.552Z,2.20
2022-09-15T09:56:42.217Z,1.83
2022-09-15T09:59:39.675Z,2.58
2022-09-15T10:02:19.693Z,1.90
2022-09-15T10:04:49.567Z,2.20
2022-09-15T10:07:19.975Z,1.80
2022-09-15T10:09:54.372Z,2.05
2022-09-15T10:12:29.355Z,1.90
2022-09-15T10:15:00.446Z,1.60
2022-09-15T10:17:41.755Z,2.13
2022-09-15T10:20:25.606Z,1.73
2022-09-15T10:23:02.346Z,1.67
2022-09-15T10:25:49.662Z,1.63
2022-09-15T10:28:25.871Z,1.42
2022-09-15T10:31:06.018Z,1.55
2022-09-15T10:33:35.975Z,1.48
2022-09-15T10:36:08.067Z,1.50
2022-09-15T10:38:42.780Z,1.55
2022-09-15T10:41:21.429Z,1.80
2022-09-15T10:44:17.865Z,1.48
2022-09-15T10:46:56.381Z,1.10
2022-09-15T10:49:38.633Z,1.73
2022-09-15T10:52:17.677Z,1.70
2022-09-15T10:54:59.714Z,1.30
2022-09-15T10:57:44.906Z,1.42
2022-09-15T11:00:22.366Z,1.35
2022-09-15T11:03:20.298Z,1.27
2022-09-15T11:06:01.389Z,1.75
2022-09-15T11:08:57.814Z,1.10
2022-09-15T11:11:35.115Z,1.13
2022-09-15T11:14:17.852Z,1.52
2022-09-15T11:17:01.318Z,1.40
2022-09-15T11:19:41.432Z,1.50
2022-09-15T11:22:15.559Z,1.92
2022-09-15T11:24:47.929Z,1.80
2022-09-15T11:27:22.123Z,1.33
2022-09-15T11:30:02.622Z,1.38
2022-09-15T11:32:38.954Z,1.40
2022-09-15T11:35:34.050Z,1.60
2022-09-15T11:38:13.047Z,1.63
2022-09-15T11:40:47.853Z,1.50
2022-09-15T11:43:22.963Z,2.55
2022-09-15T11:45:55.799Z,2.05
2022-09-15T11:48:32.402Z,1.63
2022-09-15T11:51:03.946Z,1.58
2022-09-15T11:53:38.375Z,1.70
2022-09-15T11:56:21.652Z,1.85
2022-09-15T11:59:02.792Z,1.90
2022-09-15T12:01:35.391Z,1.95
2022-09-15T12:04:09.870Z,1.60
2022-09-15T12:06:45.919Z,2.22
2022-09-15T12:09:16.993Z,1.67
2022-09-15T12:11:47.694Z,2.10
2022-09-15T12:14:20.180Z,1.52
2022-09-15T12:16:48.422Z,1.90
2022-09-15T12:19:24.372Z,1.60
2022-09-15T12:21:58.024Z,1.80
2022-09-15T12:24:35.007Z,1.63
2022-09-15T12:27:03.324Z,2.13
2022-09-15T12:29:41.814Z,1.90
2022-09-15T12:32:26.239Z,1.50
2022-09-15T12:35:27.159Z,2.33
2022-09-15T12:37:58.253Z,1.83
2022-09-15T12:40:34.851Z,1.90
2022-09-15T12:43:04.465Z,1.70
2022-09-15T12:45:35.833Z,1.60
2022-09-15T12:48:08.107Z,1.70
2022-09-15T12:50:38.333Z,1.83
2022-09-15T12:53:20.353Z,1.50
2022-09-15T12:55:51.667Z,1.40
2022-09-15T12:58:30.487Z,1.60
2022-09-15T13:01:46.806Z,1.50
2022-09-15T13:04:50.171Z,1.33
2022-09-15T13:07:58.488Z,1.45
2022-09-15T13:10:37.546Z,1.35
2022-09-15T13:13:19.617Z,1.85
2022-09-15T13:15:51.578Z,1.75
2022-09-15T13:18:20.704Z,1.40
2022-09-15T13:20:54.652Z,1.40
2022-09-15T13:23:26.144Z,1.25
2022-09-15T13:25:58.736Z,1.40
2022-09-15T13:28:28.040Z,1.42
2022-09-15T13:31:10.708Z,1.50
2022-09-15T13:40:09.637Z,1.70
2022-09-15T13:42:52.795Z,1.80
2022-09-15T13:45:48.653Z,1.83
2022-09-15T13:48:48.654Z,2.20
2022-09-15T13:51:25.050Z,1.85
2022-09-15T13:53:57.551Z,2.15
2022-09-15T13:56:28.833Z,2.00
2022-09-15T13:59:08.281Z,1.75
2022-09-15T14:01:39.734Z,1.90
2022-09-15T14:04:13.064Z,2.05
2022-09-15T14:06:44.408Z,2.08
2022-09-15T14:09:17.534Z,1.70
2022-09-15T14:11:49.537Z,1.83
2022-09-15T14:14:41.270Z,1.70
2022-09-15T14:17:20.729Z,1.65
2022-09-15T14:19:50.250Z,1.73
2022-09-15T14:22:27.137Z,1.65
2022-09-15T14:24:57.092Z,1.70
2022-09-15T14:27:27.290Z,1.70
2022-09-15T14:29:58.725Z,1.95
2022-09-15T14:32:29.221Z,1.60
2022-09-15T14:35:00.689Z,1.58
2022-09-15T14:37:31.692Z,2.08
2022-09-15T14:40:01.578Z,1.60
2022-09-15T14:42:32.506Z,1.70
2022-09-15T14:48:03.651Z,1.50
2022-09-15T14:50:33.497Z,1.50
2022-09-15T14:53:05.054Z,1.55
2022-09-15T14:55:37.774Z,1.63
2022-09-15T14:58:12.655Z,1.35
2022-09-15T15:00:52.504Z,1.60
2022-09-15T15:03:29.859Z,1.55
2022-09-15T15:06:12.754Z,1.67
2022-09-15T15:08:55.333Z,1.70
2022-09-15T15:11:23.568Z,1.50
2022-09-15T15:13:53.331Z,1.77
2022-09-15T15:16:25.386Z,2.03
2022-09-15T15:18:56.119Z,1.60
2022-09-15T15:21:41.540Z,1.70
2022-09-15T15:24:21.177Z,1.73
2022-09-15T15:26:50.736Z,1.95
2022-09-15T15:29:42.986Z,1.83
2022-09-15T15:32:15.208Z,1.50
2022-09-15T15:34:50.580Z,1.40
2022-09-15T15:37:26.408Z,1.80
2022-09-15T15:39:55.035Z,2.20
2022-09-15T15:42:24.909Z,1.70
2022-09-15T15:45:04.253Z,1.75
2022-09-15T15:47:37.260Z,1.83
2022-09-15T15:50:14.043Z,1.60
2022-09-15T15:52:43.589Z,2.05
2022-09-15T15:55:14.853Z,1.77
2022-09-15T15:57:43.354Z,1.83
2022-09-15T16:00:21.527Z,1.75
2022-09-15T16:02:52.018Z,1.92
2022-09-15T16:05:21.962Z,2.00
2022-09-15T16:07:51.994Z,1.92
2022-09-15T16:10:23.342Z,2.08
2022-09-15T16:12:51.994Z,1.95
2022-09-15T16:15:22.171Z,2.13
2022-09-15T16:17:51.857Z,1.88
2022-09-15T16:20:20.629Z,2.00
2022-09-15T16:22:49.030Z,2.38
2022-09-15T16:25:19.609Z,2.03
2022-09-15T16:27:47.578Z,1.92
2022-09-15T16:30:15.733Z,1.98
2022-09-15T16:32:43.940Z,1.90
2022-09-15T16:35:25.645Z,2.03
2022-09-15T16:37:53.675Z,2.53
2022-09-15T16:40:21.629Z,2.00
2022-09-15T16:42:49.870Z,1.98
2022-09-15T16:45:25.729Z,1.63
2022-09-15T16:47:53.724Z,2.53
2022-09-15T16:50:23.214Z,2.22
2022-09-15T16:52:51.608Z,2.78
2022-09-15T16:55:27.191Z,3.28
2022-09-15T16:57:55.263Z,2.22
2022-09-15T17:00:23.392Z,1.98
2022-09-15T17:02:51.465Z,2.25
2022-09-15T17:05:25.952Z,2.10
2022-09-15T17:07:54.008Z,2.20
2022-09-15T17:10:22.505Z,3.25
2022-09-15T17:12:50.673Z,1.70
2022-09-15T17:15:25.063Z,2.22
2022-09-15T17:17:53.081Z,2.28
2022-09-15T17:20:21.504Z,1.90
2022-09-15T17:22:51.314Z,1.88
2022-09-15T17:25:24.088Z,2.10
2022-09-15T17:27:52.978Z,1.58
2022-09-15T17:30:24.293Z,2.00
2022-09-15T17:32:52.574Z,1.90
2022-09-15T17:35:24.221Z,1.85
2022-09-15T17:37:56.344Z,2.60
2022-09-15T17:40:24.390Z,1.95
2022-09-15T17:42:52.603Z,2.50
2022-09-15T17:45:23.975Z,1.98
2022-09-15T17:47:52.847Z,2.90
2022-09-15T17:50:23.920Z,2.20
2022-09-15T17:52:53.273Z,2.15
2022-09-15T17:55:23.127Z,2.50
2022-09-15T17:57:51.627Z,1.95
2022-09-15T18:00:22.278Z,2.10
2022-09-15T18:02:52.891Z,2.10
2022-09-15T18:05:24.534Z,2.25
2022-09-15T18:07:55.377Z,2.30
2022-09-15T18:10:25.011Z,2.35
2022-09-15T18:12:55.564Z,2.97
2022-09-15T18:15:26.838Z,2.55
2022-09-15T18:17:56.501Z,2.28
2022-09-15T18:20:27.246Z,2.65
2022-09-15T18:22:57.204Z,2.63
2022-09-15T18:25:28.276Z,2.55
2022-09-15T18:27:56.386Z,2.25
2022-09-15T18:30:26.704Z,1.90
2022-09-15T18:32:55.143Z,2.25
2022-09-15T18:35:23.302Z,2.25
2022-09-15T18:37:57.803Z,1.90
2022-09-15T18:40:27.450Z,2.17
2022-09-15T18:42:56.466Z,2.05
2022-09-15T18:45:24.848Z,2.00
2022-09-15T18:47:54.257Z,2.20
2022-09-15T18:50:25.194Z,1.73
2022-09-15T18:52:53.331Z,2.08
2022-09-15T18:55:24.762Z,2.25
2022-09-15T18:57:53.065Z,2.33
2022-09-15T19:00:24.009Z,2.33
2022-09-15T19:02:57.930Z,2.22
2022-09-15T19:05:26.913Z,2.53
2022-09-15T19:07:56.247Z,2.20
2022-09-15T19:10:27.636Z,2.17
2022-09-15T19:12:55.700Z,2.25
2022-09-15T19:15:24.050Z,2.22
2022-09-15T19:17:52.431Z,2.10
2022-09-15T19:20:20.649Z,2.53
2022-09-15T19:22:48.959Z,1.75
2022-09-15T19:25:16.875Z,2.30
2022-09-15T19:27:47.770Z,2.03
2022-09-15T19:30:15.942Z,2.60
2022-09-15T19:32:44.250Z,1.60
2022-09-15T19:35:12.385Z,2.08
2022-09-15T19:37:42.130Z,2.28
2022-09-15T19:40:12.605Z,2.30
2022-09-15T19:42:41.664Z,2.00
2022-09-15T19:45:13.401Z,1.95
2022-09-15T19:47:42.223Z,2.00
2022-09-15T19:50:12.644Z,2.53
2022-09-15T19:52:41.014Z,1.88
2022-09-15T19:55:10.436Z,2.03
2022-09-15T19:57:40.394Z,1.80
2022-09-15T20:00:13.315Z,2.00
2022-09-15T20:02:41.728Z,2.00
2022-09-15T20:05:10.497Z,1.67
2022-09-15T20:07:38.676Z,2.33
2022-09-15T20:10:07.477Z,2.25
2022-09-15T20:12:35.376Z,2.25
2022-09-15T20:15:03.584Z,2.45
2022-09-15T20:17:33.030Z,2.22
2022-09-15T20:20:01.002Z,2.38
2022-09-15T20:22:29.112Z,2.05
2022-09-15T20:24:57.309Z,2.35
2022-09-15T20:27:25.359Z,2.45
2022-09-15T20:29:53.350Z,1.90
2022-09-15T20:32:26.206Z,2.20
2022-09-15T20:34:58.470Z,2.22
2022-09-15T20:37:26.613Z,2.00
2022-09-15T20:39:54.709Z,2.22
2022-09-15T20:42:22.848Z,2.33
2022-09-15T20:44:50.837Z,2.50
2022-09-15T20:47:18.807Z,2.10
2022-09-15T20:49:46.819Z,2.47
2022-09-15T20:52:16.598Z,2.58
2022-09-15T20:54:44.719Z,2.60
2022-09-15T20:57:12.693Z,2.30
2022-09-15T20:59:40.778Z,1.95
2022-09-15T21:02:09.018Z,1.92
2022-09-15T21:04:37.048Z,2.85
2022-09-15T21:07:05.125Z,2.50
2022-09-15T21:09:34.451Z,2.55
2022-09-15T21:12:02.959Z,2.75
2022-09-15T21:14:30.835Z,2.70
2022-09-15T21:16:58.843Z,2.17
2022-09-15T21:19:27.004Z,2.42
2022-09-15T21:21:55.679Z,2.30
2022-09-15T21:24:23.859Z,2.63
2022-09-15T21:27:07.104Z,2.47
2022-09-15T21:29:35.050Z,2.47
2022-09-15T21:32:03.354Z,2.67
2022-09-15T21:34:31.906Z,2.50
2022-09-15T21:37:00.100Z,2.35
2022-09-15T21:39:28.141Z,2.03
2022-09-15T21:41:57.468Z,2.00
2022-09-15T21:44:25.494Z,2.13
2022-09-15T21:46:53.599Z,2.20
2022-09-15T21:49:21.648Z,2.30
2022-09-15T21:51:49.729Z,2.75
2022-09-15T21:54:17.829Z,1.92
2022-09-15T21:56:45.934Z,1.95
2022-09-15T21:59:16.702Z,1.90
2022-09-15T22:01:44.775Z,2.88
2022-09-15T22:04:12.721Z,1.92
2022-09-15T22:06:42.365Z,2.10
2022-09-15T22:09:13.989Z,2.15
2022-09-15T22:11:42.315Z,2.00
2022-09-15T22:14:11.825Z,2.13
2022-09-15T22:16:42.776Z,2.80
2022-09-15T22:19:12.867Z,2.60
2022-09-15T22:21:42.507Z,2.88
2022-09-15T22:24:12.743Z,2.22
2022-09-15T22:26:42.433Z,2.40
2022-09-15T22:29:10.871Z,2.67
2022-09-15T22:31:41.950Z,2.75
2022-09-15T22:34:10.595Z,2.88
2022-09-15T22:36:38.957Z,3.13
2022-09-15T22:39:07.054Z,2.72
2022-09-15T22:41:38.440Z,3.25
2022-09-15T22:44:08.807Z,2.80
2022-09-15T22:46:36.864Z,2.90
2022-09-15T22:49:06.424Z,2.65
2022-09-15T22:51:34.626Z,2.60
2022-09-15T22:54:03.017Z,2.40
2022-09-15T22:56:31.322Z,2.70
2022-09-15T22:58:59.365Z,2.83
2022-09-15T23:01:30.579Z,2.72
2022-09-15T23:04:01.472Z,2.22
2022-09-15T23:06:33.506Z,2.60
2022-09-15T23:09:06.941Z,2.28
2022-09-15T23:11:37.282Z,2.40
2022-09-15T23:14:05.398Z,2.03
2022-09-15T23:16:33.698Z,2.03
2022-09-15T23:19:02.608Z,2.47
2022-09-15T23:21:32.381Z,2.15
2022-09-15T23:24:01.426Z,2.38
2022-09-15T23:26:29.572Z,2.13
2022-09-15T23:28:57.706Z,1.80
2022-09-15T23:31:25.915Z,2.20
2022-09-15T23:33:54.040Z,3.30
2022-09-15T23:36:22.284Z,2.05
2022-09-15T23:38:51.745Z,2.72
2022-09-15T23:41:20.394Z,2.70
2022-09-15T23:43:48.560Z,2.10
2022-09-15T23:46:16.987Z,3.05
2022-09-15T23:48:45.587Z,2.42
2022-09-15T23:51:13.797Z,2.70
2022-09-15T23:53:41.870Z,2.53
2022-09-15T23:56:11.239Z,2.88
2022-09-15T23:58:39.650Z,2.85
